createdAt,value
2019-03-31T00:01:49.976Z,43.08
2019-03-31T00:04:16.116Z,40.05
2019-03-31T00:06:42.136Z,27.60
2019-03-31T00:09:08.271Z,37.58
2019-03-31T00:11:34.396Z,46.60
2019-03-31T00:14:00.562Z,39.08
2019-03-31T00:16:26.679Z,33.08
2019-03-31T00:18:52.817Z,29.75
2019-03-31T00:21:18.933Z,28.55
2019-03-31T00:23:45.029Z,29.75
2019-03-31T00:26:11.162Z,32.05
2019-03-31T00:28:37.292Z,41.25
2019-03-31T00:31:03.936Z,38.98
2019-03-31T00:33:30.056Z,37.95
2019-03-31T00:35:56.181Z,44.25
2019-03-31T00:38:22.319Z,37.23
2019-03-31T00:40:48.352Z,35.88
2019-03-31T00:43:14.478Z,36.93
2019-03-31T00:45:40.662Z,37.00
2019-03-31T00:48:06.784Z,39.38
2019-03-31T00:50:32.900Z,38.33
2019-03-31T00:52:58.931Z,31.50
2019-03-31T00:55:25.058Z,32.75
2019-03-31T00:57:51.219Z,41.73
2019-03-31T01:00:39.239Z,45.70
2019-03-31T01:03:05.993Z,57.78
2019-03-31T01:05:32.549Z,38.10
2019-03-31T01:07:59.100Z,32.00
2019-03-31T01:10:25.633Z,29.40
2019-03-31T01:12:51.954Z,30.57
2019-03-31T01:15:21.795Z,35.30
2019-03-31T01:17:48.121Z,31.93
2019-03-31T01:20:14.266Z,30.32
2019-03-31T01:22:40.388Z,31.90
2019-03-31T01:25:07.733Z,44.67
2019-03-31T01:27:34.073Z,31.55
2019-03-31T01:30:00.320Z,30.20
2019-03-31T01:32:26.435Z,28.02
2019-03-31T01:34:52.567Z,37.48
2019-03-31T01:37:20.329Z,41.40
2019-03-31T01:39:46.672Z,31.12
2019-03-31T01:42:12.791Z,30.35
2019-03-31T01:44:38.827Z,26.85
2019-03-31T01:47:06.869Z,39.30
2019-03-31T01:49:33.141Z,41.55
2019-03-31T01:51:59.302Z,28.32
2019-03-31T01:54:25.494Z,34.18
2019-03-31T01:56:51.588Z,35.50
2019-03-31T01:59:17.752Z,33.18
2019-03-31T02:01:44.285Z,26.30
2019-03-31T02:04:10.444Z,28.90
2019-03-31T02:06:36.617Z,27.30
2019-03-31T02:09:04.642Z,31.02
2019-03-31T02:11:30.784Z,39.25
2019-03-31T02:13:56.915Z,37.50
2019-03-31T02:16:23.142Z,32.42
2019-03-31T02:18:49.318Z,28.67
2019-03-31T02:21:15.440Z,33.00
2019-03-31T02:23:41.515Z,27.77
2019-03-31T02:26:07.652Z,28.45
2019-03-31T02:28:33.810Z,27.17
2019-03-31T02:31:00.347Z,32.25
2019-03-31T02:33:26.425Z,28.90
2019-03-31T02:35:52.569Z,28.30
2019-03-31T02:38:18.813Z,26.48
2019-03-31T02:40:44.982Z,35.58
2019-03-31T02:43:11.116Z,26.45
2019-03-31T02:45:37.251Z,31.73
2019-03-31T02:48:03.476Z,30.17
2019-03-31T02:50:44.952Z,23.87
2019-03-31T02:53:11.073Z,29.95
2019-03-31T02:55:37.849Z,22.55
2019-03-31T02:58:04.468Z,24.52
2019-03-31T03:00:30.817Z,26.87
2019-03-31T03:02:57.450Z,28.07
2019-03-31T03:05:23.923Z,25.32
2019-03-31T03:07:50.518Z,26.75
2019-03-31T03:10:19.027Z,27.15
2019-03-31T03:13:11.581Z,27.05
2019-03-31T03:15:56.163Z,26.48
2019-03-31T03:18:22.282Z,25.60
2019-03-31T03:20:48.351Z,23.22
2019-03-31T03:23:14.476Z,20.65
2019-03-31T03:25:55.227Z,27.40
2019-03-31T03:28:08.718Z,24.52
2019-03-31T03:30:34.873Z,22.73
2019-03-31T03:33:14.515Z,23.98
2019-03-31T03:35:29.148Z,26.60
2019-03-31T03:37:55.325Z,19.17
2019-03-31T03:40:21.404Z,26.35
2019-03-31T03:42:47.549Z,29.40
2019-03-31T03:45:13.707Z,19.98
2019-03-31T03:47:39.845Z,32.83
2019-03-31T03:50:05.962Z,21.82
2019-03-31T03:52:32.043Z,19.32
2019-03-31T03:54:58.162Z,25.95
2019-03-31T03:57:24.334Z,23.12
2019-03-31T03:59:50.359Z,20.37
2019-03-31T04:02:16.481Z,22.17
2019-03-31T04:04:42.721Z,24.95
2019-03-31T04:07:08.843Z,25.05
2019-03-31T04:09:34.976Z,20.85
2019-03-31T04:12:01.107Z,26.65
2019-03-31T04:14:27.234Z,22.52
2019-03-31T04:16:53.270Z,23.60
2019-03-31T04:19:19.400Z,27.73
2019-03-31T04:21:45.533Z,24.50
2019-03-31T04:24:11.575Z,21.80
2019-03-31T04:26:37.702Z,20.90
2019-03-31T04:29:03.843Z,19.80
2019-03-31T04:31:30.013Z,25.90
2019-03-31T04:33:56.150Z,22.13
2019-03-31T04:36:22.276Z,26.42
2019-03-31T04:38:48.405Z,24.23
2019-03-31T04:41:14.538Z,20.82
2019-03-31T04:43:40.664Z,24.55
2019-03-31T04:46:06.779Z,19.00
2019-03-31T04:48:32.907Z,23.55
2019-03-31T04:50:58.959Z,20.85
2019-03-31T04:53:25.106Z,22.77
2019-03-31T04:55:51.277Z,22.52
2019-03-31T04:58:17.426Z,23.15
2019-03-31T05:00:43.554Z,26.97
2019-03-31T05:03:09.598Z,22.07
2019-03-31T05:05:35.728Z,23.55
2019-03-31T05:08:01.747Z,21.02
2019-03-31T05:10:27.925Z,22.52
2019-03-31T05:12:54.046Z,25.43
2019-03-31T05:15:20.115Z,23.10
2019-03-31T05:17:46.146Z,23.27
2019-03-31T05:20:12.317Z,28.23
2019-03-31T05:22:38.476Z,32.93
2019-03-31T05:25:05.003Z,26.93
2019-03-31T05:27:31.215Z,26.65
2019-03-31T05:29:57.346Z,26.17
2019-03-31T05:32:23.510Z,29.30
2019-03-31T05:34:49.643Z,32.88
2019-03-31T05:37:15.809Z,33.25
2019-03-31T05:39:41.948Z,35.10
2019-03-31T05:42:08.066Z,34.05
2019-03-31T05:44:34.185Z,27.02
2019-03-31T05:47:00.321Z,29.42
2019-03-31T05:49:26.477Z,29.18
2019-03-31T05:51:52.593Z,33.02
2019-03-31T05:54:18.646Z,32.55
2019-03-31T05:56:44.764Z,39.25
2019-03-31T05:59:10.927Z,40.23
2019-03-31T06:01:36.958Z,42.98
2019-03-31T06:04:03.178Z,54.13
2019-03-31T06:06:29.362Z,64.03
2019-03-31T06:08:55.611Z,60.50
2019-03-31T06:11:21.659Z,55.95
2019-03-31T06:13:47.894Z,59.18
2019-03-31T06:16:14.025Z,59.40
2019-03-31T06:18:40.146Z,51.30
2019-03-31T06:21:06.294Z,53.73
2019-03-31T06:23:32.473Z,62.70
2019-03-31T06:25:59.153Z,56.73
2019-03-31T06:28:25.289Z,73.62
2019-03-31T06:30:51.510Z,51.40
2019-03-31T06:33:17.657Z,67.03
2019-03-31T06:35:43.823Z,50.52
2019-03-31T06:38:10.053Z,47.30
2019-03-31T06:40:36.214Z,50.63
2019-03-31T06:43:02.426Z,61.25
2019-03-31T06:45:28.668Z,56.85
2019-03-31T06:47:54.903Z,54.50
2019-03-31T06:50:21.157Z,57.93
2019-03-31T06:52:47.336Z,45.30
2019-03-31T06:55:15.396Z,49.85
2019-03-31T06:57:41.651Z,47.15
2019-03-31T07:00:08.153Z,46.53
2019-03-31T07:02:34.269Z,55.95
2019-03-31T07:05:01.802Z,58.25
2019-03-31T07:07:28.263Z,43.73
2019-03-31T07:09:54.522Z,43.10
2019-03-31T07:12:20.769Z,47.30
2019-03-31T07:14:47.071Z,44.20
2019-03-31T07:17:13.360Z,39.95
2019-03-31T07:19:39.601Z,43.00
2019-03-31T07:22:05.720Z,44.65
2019-03-31T07:24:31.980Z,48.08
2019-03-31T07:26:58.020Z,45.45
2019-03-31T07:29:24.076Z,40.30
2019-03-31T07:31:50.414Z,39.40
2019-03-31T07:34:16.638Z,37.08
2019-03-31T07:36:42.760Z,35.50
2019-03-31T07:39:09.316Z,35.08
2019-03-31T07:41:35.604Z,37.55
2019-03-31T07:44:01.849Z,36.98
2019-03-31T07:46:28.092Z,30.57
2019-03-31T07:48:54.244Z,33.88
2019-03-31T07:51:20.384Z,30.72
2019-03-31T07:53:46.615Z,34.98
2019-03-31T07:56:16.139Z,34.85
2019-03-31T08:01:08.258Z,27.10
2019-03-31T08:03:34.505Z,29.80
2019-03-31T08:06:00.630Z,25.15
2019-03-31T08:08:26.897Z,26.17
2019-03-31T08:10:53.019Z,24.95
2019-03-31T08:13:19.146Z,25.72
2019-03-31T08:15:45.390Z,18.67
2019-03-31T08:18:11.558Z,19.25
2019-03-31T08:20:37.738Z,24.82
2019-03-31T08:23:09.358Z,25.55
2019-03-31T08:25:35.515Z,22.90
2019-03-31T08:28:05.026Z,22.80
2019-03-31T08:30:31.112Z,20.92
2019-03-31T08:32:57.272Z,23.30
2019-03-31T08:35:23.494Z,26.80
2019-03-31T08:37:49.649Z,25.57
2019-03-31T08:40:18.392Z,21.57
2019-03-31T08:42:44.511Z,20.32
2019-03-31T08:45:10.735Z,19.82
2019-03-31T08:47:36.863Z,18.67
2019-03-31T08:50:05.346Z,19.65
2019-03-31T08:52:31.454Z,18.90
2019-03-31T08:54:57.600Z,20.52
2019-03-31T08:57:23.723Z,18.20
2019-03-31T08:59:49.786Z,18.65
2019-03-31T09:02:23.488Z,22.55
2019-03-31T09:04:49.527Z,15.03
2019-03-31T09:07:15.680Z,14.50
2019-03-31T09:09:41.807Z,15.93
2019-03-31T09:12:07.988Z,15.75
2019-03-31T09:14:34.157Z,13.03
2019-03-31T09:17:00.271Z,12.30
2019-03-31T09:19:26.496Z,28.05
2019-03-31T09:21:53.735Z,13.58
2019-03-31T09:24:19.872Z,14.15
2019-03-31T09:26:46.034Z,15.15
2019-03-31T09:29:12.182Z,13.25
2019-03-31T09:31:38.302Z,15.23
2019-03-31T09:34:04.488Z,16.97
2019-03-31T09:36:30.631Z,16.77
2019-03-31T09:38:56.774Z,13.10
2019-03-31T09:41:22.905Z,13.15
2019-03-31T09:43:49.033Z,17.42
2019-03-31T09:46:15.147Z,14.23
2019-03-31T09:48:41.274Z,12.18
2019-03-31T09:51:07.415Z,14.47
2019-03-31T09:53:33.537Z,13.98
2019-03-31T09:55:59.671Z,14.87
2019-03-31T09:58:25.816Z,13.48
2019-03-31T10:00:51.944Z,10.85
2019-03-31T10:03:18.379Z,17.92
2019-03-31T10:05:47.686Z,12.00
2019-03-31T10:08:12.688Z,14.07
2019-03-31T10:10:39.175Z,11.78
2019-03-31T10:13:05.287Z,11.78
2019-03-31T10:15:31.563Z,12.20
2019-03-31T10:17:57.748Z,15.05
2019-03-31T10:20:23.936Z,11.15
2019-03-31T10:22:50.071Z,13.70
2019-03-31T10:25:16.227Z,14.15
2019-03-31T10:27:42.469Z,11.40
2019-03-31T10:30:09.991Z,13.98
2019-03-31T10:32:36.246Z,11.53
2019-03-31T10:35:05.029Z,11.93
2019-03-31T10:37:31.194Z,10.93
2019-03-31T10:39:57.339Z,13.98
2019-03-31T10:42:23.579Z,11.48
2019-03-31T10:44:49.711Z,9.23
2019-03-31T10:47:15.860Z,12.95
2019-03-31T10:49:47.200Z,13.13
2019-03-31T10:52:13.304Z,13.28
2019-03-31T10:54:39.901Z,16.97
2019-03-31T10:57:06.059Z,11.40
2019-03-31T10:59:32.241Z,15.03
2019-03-31T11:01:58.440Z,10.13
2019-03-31T11:04:26.880Z,11.18
2019-03-31T11:06:59.619Z,12.82
2019-03-31T11:09:23.873Z,26.48
2019-03-31T11:11:50.017Z,8.58
2019-03-31T11:14:16.317Z,11.28
2019-03-31T11:16:49.321Z,15.50
2019-03-31T11:19:19.757Z,8.50
2019-03-31T11:24:26.532Z,10.43
2019-03-31T11:26:52.689Z,8.18
2019-03-31T11:29:18.914Z,8.25
2019-03-31T11:31:45.089Z,10.80
2019-03-31T11:34:11.235Z,9.03
2019-03-31T11:36:37.169Z,10.30
2019-03-31T11:39:05.140Z,12.00
2019-03-31T11:41:31.172Z,9.83
2019-03-31T11:43:57.425Z,12.18
2019-03-31T11:46:23.534Z,14.75
2019-03-31T11:48:49.655Z,13.85
2019-03-31T11:51:15.839Z,15.80
2019-03-31T11:53:47.099Z,12.55
2019-03-31T11:56:13.366Z,12.50
2019-03-31T11:58:39.605Z,15.00
2019-03-31T12:01:05.844Z,15.98
2019-03-31T12:03:32.074Z,11.48
2019-03-31T12:05:58.188Z,12.70
2019-03-31T12:08:24.395Z,13.95
2019-03-31T12:10:50.545Z,11.65
2019-03-31T12:13:16.663Z,11.90
2019-03-31T12:15:42.786Z,13.38
2019-03-31T12:18:08.922Z,11.57
2019-03-31T12:20:35.143Z,14.25
2019-03-31T12:23:01.160Z,11.75
2019-03-31T12:25:27.337Z,11.68
2019-03-31T12:27:55.585Z,16.40
2019-03-31T12:30:27.995Z,15.48
2019-03-31T12:32:55.151Z,16.73
2019-03-31T12:35:21.289Z,14.65
2019-03-31T12:37:47.529Z,14.00
2019-03-31T12:40:17.252Z,18.12
2019-03-31T12:42:43.388Z,15.10
2019-03-31T12:45:09.453Z,21.45
2019-03-31T12:47:35.571Z,13.70
2019-03-31T12:50:01.812Z,13.98
2019-03-31T12:52:27.941Z,21.97
2019-03-31T12:54:54.168Z,18.90
2019-03-31T12:57:20.111Z,13.90
2019-03-31T12:59:46.217Z,16.10
2019-03-31T13:02:12.412Z,14.28
2019-03-31T13:04:38.533Z,18.87
2019-03-31T13:07:04.780Z,14.20
2019-03-31T13:09:30.938Z,13.83
2019-03-31T13:11:57.102Z,12.98
2019-03-31T13:14:23.281Z,14.00
2019-03-31T13:16:49.399Z,13.80
2019-03-31T13:19:15.511Z,15.03
2019-03-31T13:21:41.695Z,18.95
2019-03-31T13:24:07.809Z,15.18
2019-03-31T13:26:33.965Z,14.07
2019-03-31T13:29:00.094Z,14.33
2019-03-31T13:31:26.160Z,13.50
2019-03-31T13:33:52.432Z,21.60
2019-03-31T13:36:18.613Z,15.20
2019-03-31T13:38:44.775Z,19.48
2019-03-31T13:41:10.942Z,18.32
2019-03-31T13:43:37.094Z,14.60
2019-03-31T13:46:03.225Z,18.40
2019-03-31T13:48:29.594Z,14.03
2019-03-31T13:50:57.603Z,15.40
2019-03-31T13:53:23.757Z,24.00
2019-03-31T13:55:49.890Z,17.82
2019-03-31T13:58:18.561Z,14.45
2019-03-31T14:00:45.156Z,19.32
2019-03-31T14:03:11.368Z,18.35
2019-03-31T14:05:37.503Z,14.60
2019-03-31T14:08:03.966Z,15.45
2019-03-31T14:10:30.074Z,12.33
2019-03-31T14:12:56.254Z,16.25
2019-03-31T14:15:22.502Z,14.38
2019-03-31T14:17:48.668Z,14.83
2019-03-31T14:20:14.908Z,16.02
2019-03-31T14:22:42.338Z,21.07
2019-03-31T14:25:08.485Z,14.47
2019-03-31T14:27:34.655Z,16.67
2019-03-31T14:30:06.509Z,12.60
2019-03-31T14:32:32.541Z,15.43
2019-03-31T14:34:58.707Z,14.80
2019-03-31T14:37:24.862Z,14.73
2019-03-31T14:39:51.109Z,19.92
2019-03-31T14:42:17.266Z,17.77
2019-03-31T14:44:44.303Z,16.73
2019-03-31T14:47:10.609Z,13.40
2019-03-31T14:49:36.675Z,18.57
2019-03-31T14:52:02.845Z,19.80
2019-03-31T14:54:28.870Z,15.72
2019-03-31T14:56:55.015Z,11.75
2019-03-31T14:59:21.152Z,13.53
2019-03-31T15:01:47.436Z,15.03
2019-03-31T15:04:13.584Z,15.88
2019-03-31T15:06:39.885Z,15.55
2019-03-31T15:09:07.074Z,16.30
2019-03-31T15:11:33.111Z,17.23
2019-03-31T15:13:59.263Z,11.73
2019-03-31T15:16:28.938Z,11.55
2019-03-31T15:18:54.967Z,18.37
2019-03-31T15:21:21.142Z,16.10
2019-03-31T15:23:47.371Z,12.15
2019-03-31T15:26:13.598Z,14.95
2019-03-31T15:28:39.858Z,18.50
2019-03-31T15:31:06.119Z,14.60
2019-03-31T15:33:32.469Z,12.40
2019-03-31T15:35:58.636Z,15.32
2019-03-31T15:38:24.860Z,14.93
2019-03-31T15:40:51.151Z,14.13
2019-03-31T15:43:17.311Z,15.03
2019-03-31T15:45:43.535Z,15.80
2019-03-31T15:48:09.678Z,15.58
2019-03-31T15:50:36.374Z,17.10
2019-03-31T15:53:02.668Z,20.92
2019-03-31T15:55:28.776Z,18.15
2019-03-31T15:57:55.014Z,29.12
2019-03-31T16:00:21.244Z,22.58
2019-03-31T16:02:47.507Z,22.75
2019-03-31T16:05:13.630Z,17.87
2019-03-31T16:07:39.691Z,18.48
2019-03-31T16:10:05.965Z,16.05
2019-03-31T16:12:32.122Z,22.42
2019-03-31T16:14:58.374Z,23.60
2019-03-31T16:17:24.665Z,21.05
2019-03-31T16:19:53.799Z,26.33
2019-03-31T16:22:20.067Z,25.10
2019-03-31T16:24:48.155Z,20.17
2019-03-31T16:27:14.446Z,18.40
2019-03-31T16:29:40.581Z,23.83
2019-03-31T16:32:06.763Z,22.42
2019-03-31T16:34:32.885Z,24.85
2019-03-31T16:36:59.013Z,24.90
2019-03-31T16:39:36.880Z,27.60
2019-03-31T16:41:53.470Z,26.33
2019-03-31T16:44:19.766Z,28.80
2019-03-31T16:46:46.084Z,18.15
2019-03-31T16:49:12.316Z,16.05
2019-03-31T16:51:38.591Z,22.82
2019-03-31T16:54:05.100Z,18.42
2019-03-31T16:56:31.354Z,21.20
2019-03-31T16:58:57.501Z,24.77
2019-03-31T17:01:23.637Z,24.20
2019-03-31T17:03:49.754Z,15.70
2019-03-31T17:06:15.907Z,14.20
2019-03-31T17:08:42.074Z,18.15
2019-03-31T17:11:09.181Z,14.53
2019-03-31T17:13:35.330Z,14.45
2019-03-31T17:16:01.591Z,16.15
2019-03-31T17:18:27.714Z,19.00
2019-03-31T17:20:53.890Z,21.85
2019-03-31T17:23:20.175Z,22.17
2019-03-31T17:25:46.309Z,21.23
2019-03-31T17:28:12.400Z,22.67
2019-03-31T17:30:38.652Z,25.08
2019-03-31T17:33:04.949Z,27.93
2019-03-31T17:35:31.186Z,38.78
2019-03-31T17:37:59.629Z,34.03
2019-03-31T17:40:25.921Z,25.17
2019-03-31T17:42:52.217Z,29.27
2019-03-31T17:45:18.495Z,45.90
2019-03-31T17:47:44.722Z,47.62
2019-03-31T17:50:11.193Z,44.50
2019-03-31T17:52:37.434Z,39.58
2019-03-31T17:55:04.727Z,36.33
2019-03-31T17:57:31.023Z,32.48
2019-03-31T17:59:57.298Z,22.90
2019-03-31T18:02:23.578Z,25.32
2019-03-31T18:04:51.898Z,21.75
2019-03-31T18:07:18.111Z,17.80
2019-03-31T18:09:44.281Z,18.80
2019-03-31T18:12:10.525Z,20.10
2019-03-31T18:14:38.505Z,24.23
2019-03-31T18:17:04.755Z,34.58
2019-03-31T18:19:30.875Z,29.67
2019-03-31T18:21:57.050Z,29.45
2019-03-31T18:24:23.189Z,42.13
2019-03-31T18:26:49.336Z,31.77
2019-03-31T18:29:16.034Z,20.92
2019-03-31T18:31:42.200Z,35.83
2019-03-31T18:34:08.343Z,38.88
2019-03-31T18:36:36.817Z,39.70
2019-03-31T18:39:05.344Z,34.88
2019-03-31T18:41:31.484Z,37.75
2019-03-31T18:43:57.642Z,31.02
2019-03-31T18:46:23.771Z,32.95
2019-03-31T18:48:49.892Z,31.75
2019-03-31T18:51:16.035Z,55.17
2019-03-31T18:54:02.051Z,36.63
2019-03-31T19:13:20.435Z,20.15
2019-03-31T19:15:51.104Z,21.15
2019-03-31T19:21:11.014Z,33.50
2019-03-31T19:23:56.683Z,26.48
2019-03-31T19:26:27.518Z,31.05
2019-03-31T19:29:10.730Z,23.07
2019-03-31T19:31:41.604Z,21.97
2019-03-31T19:34:09.612Z,20.62
2019-03-31T19:36:40.519Z,23.02
2019-03-31T19:39:24.561Z,19.27
2019-03-31T19:44:35.954Z,62.48
2019-03-31T19:47:06.548Z,18.02
2019-03-31T19:49:34.623Z,40.33
2019-03-31T19:52:06.208Z,33.80
2019-03-31T19:54:35.522Z,37.40
2019-03-31T20:00:02.565Z,26.68
2019-03-31T20:02:30.610Z,27.13
2019-03-31T20:04:58.643Z,28.57
2019-03-31T20:07:29.531Z,56.90
2019-03-31T20:10:14.435Z,35.08
2019-03-31T20:12:59.216Z,36.70
2019-03-31T20:15:29.762Z,39.42
2019-03-31T20:18:14.164Z,40.40
2019-03-31T20:20:44.870Z,129.80
2019-03-31T20:23:29.637Z,119.00
2019-03-31T20:28:56.763Z,57.65
2019-03-31T20:31:33.569Z,46.08
2019-03-31T20:36:50.473Z,32.93
2019-03-31T20:39:18.571Z,30.27
2019-03-31T20:44:44.355Z,42.73
2019-03-31T20:47:10.505Z,36.38
2019-03-31T20:49:36.762Z,35.33
2019-03-31T20:52:03.009Z,37.78
2019-03-31T20:54:32.797Z,40.95
2019-03-31T20:56:58.299Z,39.67
2019-03-31T20:59:24.467Z,35.05
2019-03-31T21:01:53.243Z,39.75
2019-03-31T21:04:19.340Z,37.13
2019-03-31T21:06:45.564Z,37.67
2019-03-31T21:09:11.705Z,35.75
2019-03-31T21:11:37.929Z,42.33
2019-03-31T21:14:04.055Z,42.98
2019-03-31T21:16:30.310Z,45.48
2019-03-31T21:18:56.453Z,44.10
2019-03-31T21:21:22.750Z,39.58
2019-03-31T21:23:48.870Z,42.33
2019-03-31T21:26:15.153Z,48.60
2019-03-31T21:28:41.445Z,40.75
2019-03-31T21:31:07.705Z,45.12
2019-03-31T21:33:33.860Z,51.23
2019-03-31T21:36:00.096Z,38.75
2019-03-31T21:38:26.261Z,42.33
2019-03-31T21:40:52.502Z,42.67
2019-03-31T21:43:18.785Z,48.28
2019-03-31T21:45:45.305Z,45.12
2019-03-31T21:48:11.432Z,38.13
2019-03-31T21:50:38.039Z,46.25
2019-03-31T21:53:04.158Z,48.78
2019-03-31T21:55:30.296Z,41.75
2019-03-31T21:57:56.466Z,39.53
2019-03-31T22:00:27.024Z,39.40
2019-03-31T22:02:53.144Z,39.75
2019-03-31T22:05:19.269Z,39.80
2019-03-31T22:07:45.408Z,45.08
2019-03-31T22:10:11.548Z,39.40
2019-03-31T22:12:37.666Z,36.20
2019-03-31T22:15:04.801Z,46.28
2019-03-31T22:17:30.946Z,44.20
2019-03-31T22:19:57.184Z,46.80
2019-03-31T22:22:23.325Z,45.95
2019-03-31T22:24:49.437Z,46.55
2019-03-31T22:27:15.667Z,42.58
2019-03-31T22:29:41.793Z,45.60
2019-03-31T22:32:07.927Z,40.85
2019-03-31T22:34:34.079Z,43.58
2019-03-31T22:37:00.201Z,43.25
2019-03-31T22:39:26.334Z,40.73
2019-03-31T22:41:52.458Z,44.50
2019-03-31T22:44:18.515Z,46.30
2019-03-31T22:46:54.139Z,41.10
2019-03-31T22:49:12.735Z,39.60
2019-03-31T22:51:38.874Z,50.98
2019-03-31T22:54:04.992Z,45.60
2019-03-31T22:56:31.119Z,43.35
2019-03-31T22:58:57.278Z,43.28
2019-03-31T23:01:23.488Z,44.13
2019-03-31T23:03:49.645Z,44.42
2019-03-31T23:06:15.785Z,46.92
2019-03-31T23:08:41.899Z,47.43
2019-03-31T23:11:08.057Z,51.20
2019-03-31T23:13:34.083Z,41.92
2019-03-31T23:16:00.216Z,45.98
2019-03-31T23:18:26.359Z,42.83
2019-03-31T23:20:52.524Z,41.80
2019-03-31T23:23:18.551Z,46.65
2019-03-31T23:25:44.728Z,45.35
2019-03-31T23:28:10.853Z,44.30
2019-03-31T23:30:37.103Z,45.28
2019-03-31T23:33:03.143Z,40.45
2019-03-31T23:35:29.184Z,45.63
2019-03-31T23:37:58.125Z,41.13
2019-03-31T23:40:24.239Z,43.87
2019-03-31T23:42:50.363Z,40.65
2019-03-31T23:45:16.419Z,43.85
2019-03-31T23:47:42.576Z,38.30
2019-03-31T23:50:08.997Z,37.42
2019-03-31T23:52:35.319Z,40.48
2019-03-31T23:55:01.350Z,34.65
2019-03-31T23:57:40.043Z,35.98
